sensor_id;sensor_type;location;lat;lon;timestamp;P1;durP1;ratioP1;P2;durP2;ratioP2
11911;SDS011;6016;41.928;25.556;2023-07-08T00:01:59;9.43;;;6.75;;
11911;SDS011;6016;41.928;25.556;2023-07-08T00:04:26;11.32;;;7.00;;
11911;SDS011;6016;41.928;25.556;2023-07-08T00:06:52;9.30;;;6.65;;
11911;SDS011;6016;41.928;25.556;2023-07-08T00:09:21;13.82;;;7.35;;
11911;SDS011;6016;41.928;25.556;2023-07-08T00:11:48;9.63;;;6.50;;
11911;SDS011;6016;41.928;25.556;2023-07-08T00:14:15;10.40;;;6.82;;
11911;SDS011;6016;41.928;25.556;2023-07-08T00:16:42;9.00;;;6.72;;
11911;SDS011;6016;41.928;25.556;2023-07-08T00:19:09;11.35;;;7.35;;
11911;SDS011;6016;41.928;25.556;2023-07-08T00:21:36;8.38;;;6.60;;
11911;SDS011;6016;41.928;25.556;2023-07-08T00:24:03;10.52;;;6.82;;
11911;SDS011;6016;41.928;25.556;2023-07-08T00:26:32;11.65;;;6.75;;
11911;SDS011;6016;41.928;25.556;2023-07-08T00:28:59;9.82;;;7.00;;
11911;SDS011;6016;41.928;25.556;2023-07-08T00:31:26;9.52;;;6.70;;
11911;SDS011;6016;41.928;25.556;2023-07-08T00:33:53;13.43;;;6.93;;
11911;SDS011;6016;41.928;25.556;2023-07-08T00:36:22;8.95;;;6.65;;
11911;SDS011;6016;41.928;25.556;2023-07-08T00:38:50;8.35;;;5.80;;
11911;SDS011;6016;41.928;25.556;2023-07-08T00:41:18;9.63;;;6.43;;
11911;SDS011;6016;41.928;25.556;2023-07-08T00:43:50;9.50;;;6.60;;
11911;SDS011;6016;41.928;25.556;2023-07-08T00:46:21;8.40;;;6.40;;
11911;SDS011;6016;41.928;25.556;2023-07-08T00:48:59;11.20;;;6.28;;
11911;SDS011;6016;41.928;25.556;2023-07-08T00:51:35;11.90;;;6.57;;
11911;SDS011;6016;41.928;25.556;2023-07-08T00:54:03;9.20;;;6.40;;
11911;SDS011;6016;41.928;25.556;2023-07-08T00:56:30;11.50;;;6.85;;
11911;SDS011;6016;41.928;25.556;2023-07-08T00:59:03;12.25;;;6.72;;
11911;SDS011;6016;41.928;25.556;2023-07-08T01:01:34;9.77;;;6.43;;
11911;SDS011;6016;41.928;25.556;2023-07-08T01:04:06;13.73;;;6.50;;
11911;SDS011;6016;41.928;25.556;2023-07-08T01:06:37;9.32;;;6.82;;
11911;SDS011;6016;41.928;25.556;2023-07-08T01:09:08;9.98;;;6.70;;
11911;SDS011;6016;41.928;25.556;2023-07-08T01:11:37;8.75;;;6.20;;
11911;SDS011;6016;41.928;25.556;2023-07-08T01:14:08;10.88;;;6.60;;
11911;SDS011;6016;41.928;25.556;2023-07-08T01:16:39;9.55;;;6.22;;
11911;SDS011;6016;41.928;25.556;2023-07-08T01:19:06;9.77;;;6.38;;
11911;SDS011;6016;41.928;25.556;2023-07-08T01:21:45;9.63;;;6.28;;
11911;SDS011;6016;41.928;25.556;2023-07-08T01:24:12;11.10;;;6.25;;
11911;SDS011;6016;41.928;25.556;2023-07-08T01:26:42;8.93;;;6.93;;
11911;SDS011;6016;41.928;25.556;2023-07-08T01:29:11;9.30;;;6.43;;
11911;SDS011;6016;41.928;25.556;2023-07-08T01:31:39;10.30;;;7.10;;
11911;SDS011;6016;41.928;25.556;2023-07-08T01:34:07;10.13;;;6.88;;
11911;SDS011;6016;41.928;25.556;2023-07-08T01:36:38;9.57;;;6.50;;
11911;SDS011;6016;41.928;25.556;2023-07-08T01:39:11;9.00;;;6.53;;
11911;SDS011;6016;41.928;25.556;2023-07-08T01:41:42;8.93;;;6.65;;
11911;SDS011;6016;41.928;25.556;2023-07-08T01:44:18;8.70;;;6.70;;
11911;SDS011;6016;41.928;25.556;2023-07-08T01:46:47;9.73;;;6.72;;
11911;SDS011;6016;41.928;25.556;2023-07-08T01:49:15;11.05;;;7.18;;
11911;SDS011;6016;41.928;25.556;2023-07-08T01:51:42;11.63;;;6.90;;
11911;SDS011;6016;41.928;25.556;2023-07-08T01:54:09;10.02;;;6.78;;
11911;SDS011;6016;41.928;25.556;2023-07-08T01:56:37;12.88;;;6.82;;
11911;SDS011;6016;41.928;25.556;2023-07-08T01:59:04;11.50;;;7.13;;
11911;SDS011;6016;41.928;25.556;2023-07-08T02:01:31;9.82;;;7.13;;
11911;SDS011;6016;41.928;25.556;2023-07-08T02:03:58;9.65;;;7.30;;
11911;SDS011;6016;41.928;25.556;2023-07-08T02:06:25;9.55;;;6.80;;
11911;SDS011;6016;41.928;25.556;2023-07-08T02:08:52;10.20;;;6.97;;
11911;SDS011;6016;41.928;25.556;2023-07-08T02:11:20;9.98;;;6.90;;
11911;SDS011;6016;41.928;25.556;2023-07-08T02:13:48;8.45;;;6.75;;
11911;SDS011;6016;41.928;25.556;2023-07-08T02:16:15;12.23;;;6.72;;
11911;SDS011;6016;41.928;25.556;2023-07-08T02:18:42;10.52;;;6.88;;
11911;SDS011;6016;41.928;25.556;2023-07-08T02:21:08;11.50;;;7.53;;
11911;SDS011;6016;41.928;25.556;2023-07-08T02:23:35;12.40;;;6.95;;
11911;SDS011;6016;41.928;25.556;2023-07-08T02:26:02;8.50;;;6.32;;
11911;SDS011;6016;41.928;25.556;2023-07-08T02:28:29;10.27;;;6.95;;
11911;SDS011;6016;41.928;25.556;2023-07-08T02:30:57;11.88;;;6.55;;
11911;SDS011;6016;41.928;25.556;2023-07-08T02:33:28;8.55;;;6.47;;
11911;SDS011;6016;41.928;25.556;2023-07-08T02:35:58;10.18;;;6.43;;
11911;SDS011;6016;41.928;25.556;2023-07-08T02:38:25;8.90;;;6.80;;
11911;SDS011;6016;41.928;25.556;2023-07-08T02:40:52;11.07;;;6.85;;
11911;SDS011;6016;41.928;25.556;2023-07-08T02:43:19;11.45;;;7.72;;
11911;SDS011;6016;41.928;25.556;2023-07-08T02:45:48;12.52;;;6.90;;
11911;SDS011;6016;41.928;25.556;2023-07-08T02:48:17;10.48;;;7.15;;
11911;SDS011;6016;41.928;25.556;2023-07-08T02:50:44;9.88;;;7.40;;
11911;SDS011;6016;41.928;25.556;2023-07-08T02:53:11;13.75;;;6.95;;
11911;SDS011;6016;41.928;25.556;2023-07-08T02:55:38;10.57;;;7.13;;
11911;SDS011;6016;41.928;25.556;2023-07-08T02:58:07;10.07;;;6.53;;
11911;SDS011;6016;41.928;25.556;2023-07-08T03:00:34;10.55;;;7.05;;
11911;SDS011;6016;41.928;25.556;2023-07-08T03:03:02;11.95;;;7.20;;
11911;SDS011;6016;41.928;25.556;2023-07-08T03:05:31;9.60;;;6.93;;
11911;SDS011;6016;41.928;25.556;2023-07-08T03:07:58;11.90;;;6.80;;
11911;SDS011;6016;41.928;25.556;2023-07-08T03:10:25;10.68;;;7.03;;
11911;SDS011;6016;41.928;25.556;2023-07-08T03:12:52;11.60;;;7.13;;
11911;SDS011;6016;41.928;25.556;2023-07-08T03:15:19;9.63;;;7.00;;
11911;SDS011;6016;41.928;25.556;2023-07-08T03:17:46;10.00;;;7.05;;
11911;SDS011;6016;41.928;25.556;2023-07-08T03:20:12;9.48;;;6.95;;
11911;SDS011;6016;41.928;25.556;2023-07-08T03:22:41;11.80;;;6.93;;
11911;SDS011;6016;41.928;25.556;2023-07-08T03:25:08;10.98;;;7.28;;
11911;SDS011;6016;41.928;25.556;2023-07-08T03:27:35;12.23;;;7.05;;
11911;SDS011;6016;41.928;25.556;2023-07-08T03:30:02;11.90;;;7.40;;
11911;SDS011;6016;41.928;25.556;2023-07-08T03:32:30;9.85;;;7.45;;
11911;SDS011;6016;41.928;25.556;2023-07-08T03:34:57;10.63;;;7.22;;
11911;SDS011;6016;41.928;25.556;2023-07-08T03:37:23;11.15;;;7.28;;
11911;SDS011;6016;41.928;25.556;2023-07-08T03:39:52;10.93;;;7.63;;
11911;SDS011;6016;41.928;25.556;2023-07-08T03:42:19;10.95;;;7.70;;
11911;SDS011;6016;41.928;25.556;2023-07-08T03:44:45;10.30;;;7.47;;
11911;SDS011;6016;41.928;25.556;2023-07-08T03:47:12;14.18;;;8.02;;
11911;SDS011;6016;41.928;25.556;2023-07-08T03:49:39;13.98;;;7.50;;
11911;SDS011;6016;41.928;25.556;2023-07-08T03:52:07;10.70;;;6.97;;
11911;SDS011;6016;41.928;25.556;2023-07-08T03:54:37;10.40;;;7.45;;
11911;SDS011;6016;41.928;25.556;2023-07-08T03:57:05;11.07;;;7.60;;
11911;SDS011;6016;41.928;25.556;2023-07-08T03:59:32;10.35;;;7.75;;
11911;SDS011;6016;41.928;25.556;2023-07-08T04:01:59;13.55;;;7.70;;
11911;SDS011;6016;41.928;25.556;2023-07-08T04:04:26;10.70;;;7.93;;
11911;SDS011;6016;41.928;25.556;2023-07-08T04:06:53;11.35;;;7.90;;
11911;SDS011;6016;41.928;25.556;2023-07-08T04:09:20;14.55;;;8.88;;
11911;SDS011;6016;41.928;25.556;2023-07-08T04:11:47;16.40;;;9.10;;
11911;SDS011;6016;41.928;25.556;2023-07-08T04:14:15;13.45;;;8.70;;
11911;SDS011;6016;41.928;25.556;2023-07-08T04:16:43;13.30;;;9.13;;
11911;SDS011;6016;41.928;25.556;2023-07-08T04:21:41;12.63;;;9.25;;
11911;SDS011;6016;41.928;25.556;2023-07-08T04:24:09;16.23;;;9.35;;
11911;SDS011;6016;41.928;25.556;2023-07-08T04:26:37;15.63;;;9.43;;
11911;SDS011;6016;41.928;25.556;2023-07-08T04:29:06;14.95;;;10.05;;
11911;SDS011;6016;41.928;25.556;2023-07-08T04:31:37;15.13;;;10.18;;
11911;SDS011;6016;41.928;25.556;2023-07-08T04:34:04;16.48;;;11.10;;
11911;SDS011;6016;41.928;25.556;2023-07-08T04:36:32;15.13;;;9.60;;
11911;SDS011;6016;41.928;25.556;2023-07-08T04:38:59;16.05;;;11.13;;
11911;SDS011;6016;41.928;25.556;2023-07-08T04:41:26;18.10;;;10.25;;
11911;SDS011;6016;41.928;25.556;2023-07-08T04:43:53;14.20;;;10.50;;
11911;SDS011;6016;41.928;25.556;2023-07-08T04:46:24;30.15;;;17.40;;
11911;SDS011;6016;41.928;25.556;2023-07-08T04:49:01;15.85;;;11.07;;
11911;SDS011;6016;41.928;25.556;2023-07-08T04:51:28;15.45;;;10.88;;
11911;SDS011;6016;41.928;25.556;2023-07-08T04:53:55;18.02;;;10.25;;
11911;SDS011;6016;41.928;25.556;2023-07-08T04:56:22;20.77;;;10.85;;
11911;SDS011;6016;41.928;25.556;2023-07-08T04:58:49;14.52;;;10.45;;
11911;SDS011;6016;41.928;25.556;2023-07-08T05:01:16;17.67;;;11.95;;
11911;SDS011;6016;41.928;25.556;2023-07-08T05:03:44;15.43;;;10.65;;
11911;SDS011;6016;41.928;25.556;2023-07-08T05:06:15;14.80;;;10.85;;
11911;SDS011;6016;41.928;25.556;2023-07-08T05:08:42;14.93;;;10.60;;
11911;SDS011;6016;41.928;25.556;2023-07-08T05:11:09;14.30;;;10.95;;
11911;SDS011;6016;41.928;25.556;2023-07-08T05:13:36;14.30;;;9.82;;
11911;SDS011;6016;41.928;25.556;2023-07-08T05:16:04;27.65;;;19.23;;
11911;SDS011;6016;41.928;25.556;2023-07-08T05:18:34;15.90;;;11.15;;
11911;SDS011;6016;41.928;25.556;2023-07-08T05:21:04;15.70;;;11.73;;
11911;SDS011;6016;41.928;25.556;2023-07-08T05:23:38;19.17;;;10.80;;
11911;SDS011;6016;41.928;25.556;2023-07-08T05:26:05;20.40;;;11.05;;
11911;SDS011;6016;41.928;25.556;2023-07-08T05:28:33;16.10;;;10.13;;
11911;SDS011;6016;41.928;25.556;2023-07-08T05:31:00;15.45;;;9.95;;
11911;SDS011;6016;41.928;25.556;2023-07-08T05:33:29;15.88;;;10.75;;
11911;SDS011;6016;41.928;25.556;2023-07-08T05:35:56;16.70;;;10.43;;
11911;SDS011;6016;41.928;25.556;2023-07-08T05:38:23;17.05;;;11.23;;
11911;SDS011;6016;41.928;25.556;2023-07-08T05:40:53;16.02;;;10.63;;
11911;SDS011;6016;41.928;25.556;2023-07-08T05:43:21;14.55;;;10.40;;
11911;SDS011;6016;41.928;25.556;2023-07-08T05:45:48;16.45;;;11.13;;
11911;SDS011;6016;41.928;25.556;2023-07-08T05:48:15;16.88;;;10.27;;
11911;SDS011;6016;41.928;25.556;2023-07-08T05:50:42;13.40;;;10.85;;
11911;SDS011;6016;41.928;25.556;2023-07-08T05:53:11;15.25;;;10.75;;
11911;SDS011;6016;41.928;25.556;2023-07-08T05:55:39;16.10;;;11.30;;
11911;SDS011;6016;41.928;25.556;2023-07-08T05:58:09;14.25;;;10.95;;
11911;SDS011;6016;41.928;25.556;2023-07-08T06:00:35;17.90;;;12.00;;
11911;SDS011;6016;41.928;25.556;2023-07-08T06:03:03;14.85;;;11.15;;
11911;SDS011;6016;41.928;25.556;2023-07-08T06:05:29;18.13;;;11.48;;
11911;SDS011;6016;41.928;25.556;2023-07-08T06:07:58;15.65;;;10.90;;
11911;SDS011;6016;41.928;25.556;2023-07-08T06:10:24;17.02;;;11.60;;
11911;SDS011;6016;41.928;25.556;2023-07-08T06:12:51;15.18;;;10.45;;
11911;SDS011;6016;41.928;25.556;2023-07-08T06:15:20;15.55;;;10.82;;
11911;SDS011;6016;41.928;25.556;2023-07-08T06:17:46;30.58;;;20.63;;
11911;SDS011;6016;41.928;25.556;2023-07-08T06:20:13;32.13;;;21.75;;
11911;SDS011;6016;41.928;25.556;2023-07-08T06:22:40;74.40;;;43.88;;
11911;SDS011;6016;41.928;25.556;2023-07-08T06:25:07;16.15;;;11.95;;
11911;SDS011;6016;41.928;25.556;2023-07-08T06:27:34;17.65;;;11.30;;
11911;SDS011;6016;41.928;25.556;2023-07-08T06:30:01;17.10;;;10.73;;
11911;SDS011;6016;41.928;25.556;2023-07-08T06:32:29;17.42;;;12.07;;
11911;SDS011;6016;41.928;25.556;2023-07-08T06:34:56;17.83;;;11.10;;
11911;SDS011;6016;41.928;25.556;2023-07-08T06:37:23;13.57;;;10.57;;
11911;SDS011;6016;41.928;25.556;2023-07-08T06:39:50;16.60;;;10.77;;
11911;SDS011;6016;41.928;25.556;2023-07-08T06:42:18;16.65;;;10.70;;
11911;SDS011;6016;41.928;25.556;2023-07-08T06:44:48;13.63;;;10.13;;
11911;SDS011;6016;41.928;25.556;2023-07-08T06:47:17;17.48;;;11.27;;
11911;SDS011;6016;41.928;25.556;2023-07-08T06:49:46;17.52;;;10.38;;
11911;SDS011;6016;41.928;25.556;2023-07-08T06:52:14;14.32;;;10.82;;
11911;SDS011;6016;41.928;25.556;2023-07-08T06:54:41;13.80;;;10.30;;
11911;SDS011;6016;41.928;25.556;2023-07-08T06:57:08;14.15;;;10.20;;
11911;SDS011;6016;41.928;25.556;2023-07-08T06:59:35;17.77;;;10.50;;
11911;SDS011;6016;41.928;25.556;2023-07-08T07:02:02;11.98;;;9.43;;
11911;SDS011;6016;41.928;25.556;2023-07-08T07:04:29;11.43;;;9.30;;
11911;SDS011;6016;41.928;25.556;2023-07-08T07:06:58;12.93;;;9.35;;
11911;SDS011;6016;41.928;25.556;2023-07-08T07:09:25;13.10;;;9.80;;
11911;SDS011;6016;41.928;25.556;2023-07-08T07:11:52;14.77;;;9.90;;
11911;SDS011;6016;41.928;25.556;2023-07-08T07:14:19;12.18;;;9.10;;
11911;SDS011;6016;41.928;25.556;2023-07-08T07:16:46;12.48;;;9.07;;
11911;SDS011;6016;41.928;25.556;2023-07-08T07:19:13;11.77;;;9.40;;
11911;SDS011;6016;41.928;25.556;2023-07-08T07:21:40;11.05;;;9.02;;
11911;SDS011;6016;41.928;25.556;2023-07-08T07:24:08;14.02;;;9.45;;
11911;SDS011;6016;41.928;25.556;2023-07-08T07:26:34;11.70;;;9.27;;
11911;SDS011;6016;41.928;25.556;2023-07-08T07:29:01;14.70;;;9.15;;
11911;SDS011;6016;41.928;25.556;2023-07-08T07:31:28;10.88;;;8.23;;
11911;SDS011;6016;41.928;25.556;2023-07-08T07:33:57;13.13;;;8.13;;
11911;SDS011;6016;41.928;25.556;2023-07-08T07:36:25;13.05;;;8.77;;
11911;SDS011;6016;41.928;25.556;2023-07-08T07:38:52;11.32;;;7.82;;
11911;SDS011;6016;41.928;25.556;2023-07-08T07:41:20;10.90;;;8.10;;
11911;SDS011;6016;41.928;25.556;2023-07-08T07:43:47;10.73;;;8.50;;
11911;SDS011;6016;41.928;25.556;2023-07-08T07:46:14;11.98;;;7.78;;
11911;SDS011;6016;41.928;25.556;2023-07-08T07:48:41;8.52;;;7.07;;
11911;SDS011;6016;41.928;25.556;2023-07-08T07:51:08;9.55;;;7.70;;
11911;SDS011;6016;41.928;25.556;2023-07-08T07:53:36;14.18;;;7.57;;
11911;SDS011;6016;41.928;25.556;2023-07-08T07:56:03;12.88;;;9.63;;
11911;SDS011;6016;41.928;25.556;2023-07-08T07:58:32;15.88;;;8.48;;
11911;SDS011;6016;41.928;25.556;2023-07-08T08:00:59;15.57;;;10.25;;
11911;SDS011;6016;41.928;25.556;2023-07-08T08:03:26;8.80;;;7.38;;
11911;SDS011;6016;41.928;25.556;2023-07-08T08:05:53;15.35;;;7.85;;
11911;SDS011;6016;41.928;25.556;2023-07-08T08:08:20;17.70;;;8.10;;
11911;SDS011;6016;41.928;25.556;2023-07-08T08:10:47;11.70;;;7.53;;
11911;SDS011;6016;41.928;25.556;2023-07-08T08:13:15;10.35;;;6.80;;
11911;SDS011;6016;41.928;25.556;2023-07-08T08:15:43;13.93;;;6.68;;
11911;SDS011;6016;41.928;25.556;2023-07-08T08:18:10;12.02;;;7.25;;
11911;SDS011;6016;41.928;25.556;2023-07-08T08:20:36;9.15;;;7.32;;
11911;SDS011;6016;41.928;25.556;2023-07-08T08:23:04;11.02;;;8.50;;
11911;SDS011;6016;41.928;25.556;2023-07-08T08:25:32;11.02;;;7.50;;
11911;SDS011;6016;41.928;25.556;2023-07-08T08:27:59;11.00;;;7.18;;
11911;SDS011;6016;41.928;25.556;2023-07-08T08:30:26;11.57;;;7.38;;
11911;SDS011;6016;41.928;25.556;2023-07-08T08:32:54;10.15;;;6.68;;
11911;SDS011;6016;41.928;25.556;2023-07-08T08:35:21;11.55;;;6.90;;
11911;SDS011;6016;41.928;25.556;2023-07-08T08:37:48;8.90;;;7.35;;
11911;SDS011;6016;41.928;25.556;2023-07-08T08:40:16;10.73;;;6.93;;
11911;SDS011;6016;41.928;25.556;2023-07-08T08:42:45;13.63;;;7.68;;
11911;SDS011;6016;41.928;25.556;2023-07-08T08:45:19;9.98;;;7.10;;
11911;SDS011;6016;41.928;25.556;2023-07-08T08:47:51;11.02;;;7.65;;
11911;SDS011;6016;41.928;25.556;2023-07-08T08:50:26;9.90;;;7.53;;
11911;SDS011;6016;41.928;25.556;2023-07-08T08:52:57;14.80;;;7.45;;
11911;SDS011;6016;41.928;25.556;2023-07-08T08:55:26;16.48;;;9.18;;
11911;SDS011;6016;41.928;25.556;2023-07-08T08:57:56;12.88;;;7.55;;
11911;SDS011;6016;41.928;25.556;2023-07-08T09:00:29;11.93;;;7.50;;
11911;SDS011;6016;41.928;25.556;2023-07-08T09:03:07;18.40;;;8.35;;
11911;SDS011;6016;41.928;25.556;2023-07-08T09:05:37;16.42;;;9.50;;
11911;SDS011;6016;41.928;25.556;2023-07-08T09:08:05;16.40;;;8.85;;
11911;SDS011;6016;41.928;25.556;2023-07-08T09:10:42;14.95;;;8.60;;
11911;SDS011;6016;41.928;25.556;2023-07-08T09:13:15;14.88;;;8.50;;
11911;SDS011;6016;41.928;25.556;2023-07-08T09:15:51;12.73;;;8.20;;
11911;SDS011;6016;41.928;25.556;2023-07-08T09:18:25;13.40;;;8.35;;
11911;SDS011;6016;41.928;25.556;2023-07-08T09:20:58;16.63;;;9.70;;
11911;SDS011;6016;41.928;25.556;2023-07-08T09:23:32;15.02;;;9.00;;
11911;SDS011;6016;41.928;25.556;2023-07-08T09:26:04;11.48;;;8.40;;
11911;SDS011;6016;41.928;25.556;2023-07-08T09:28:38;17.98;;;10.57;;
11911;SDS011;6016;41.928;25.556;2023-07-08T09:31:06;14.45;;;9.75;;
11911;SDS011;6016;41.928;25.556;2023-07-08T09:33:38;15.77;;;9.25;;
11911;SDS011;6016;41.928;25.556;2023-07-08T09:36:15;21.70;;;9.75;;
11911;SDS011;6016;41.928;25.556;2023-07-08T09:38:46;13.20;;;9.13;;
11911;SDS011;6016;41.928;25.556;2023-07-08T09:41:17;14.32;;;8.52;;
11911;SDS011;6016;41.928;25.556;2023-07-08T09:44:06;21.25;;;8.48;;
11911;SDS011;6016;41.928;25.556;2023-07-08T09:46:40;14.32;;;8.18;;
11911;SDS011;6016;41.928;25.556;2023-07-08T09:49:20;10.75;;;7.03;;
11911;SDS011;6016;41.928;25.556;2023-07-08T09:51:49;9.97;;;6.70;;
11911;SDS011;6016;41.928;25.556;2023-07-08T09:54:18;10.13;;;6.30;;
11911;SDS011;6016;41.928;25.556;2023-07-08T09:56:50;13.98;;;6.90;;
11911;SDS011;6016;41.928;25.556;2023-07-08T09:59:22;12.35;;;6.40;;
11911;SDS011;6016;41.928;25.556;2023-07-08T10:01:52;9.98;;;5.88;;
11911;SDS011;6016;41.928;25.556;2023-07-08T10:04:21;9.23;;;5.80;;
11911;SDS011;6016;41.928;25.556;2023-07-08T10:06:50;9.55;;;6.28;;
11911;SDS011;6016;41.928;25.556;2023-07-08T10:09:19;8.82;;;5.90;;
11911;SDS011;6016;41.928;25.556;2023-07-08T10:11:51;11.23;;;6.23;;
11911;SDS011;6016;41.928;25.556;2023-07-08T10:14:24;9.68;;;6.00;;
11911;SDS011;6016;41.928;25.556;2023-07-08T10:16:53;10.05;;;5.88;;
11911;SDS011;6016;41.928;25.556;2023-07-08T10:19:22;10.40;;;6.35;;
11911;SDS011;6016;41.928;25.556;2023-07-08T10:21:55;11.25;;;6.85;;
11911;SDS011;6016;41.928;25.556;2023-07-08T10:24:44;10.35;;;6.65;;
11911;SDS011;6016;41.928;25.556;2023-07-08T10:27:21;9.38;;;6.50;;
11911;SDS011;6016;41.928;25.556;2023-07-08T10:29:52;10.55;;;7.65;;
11911;SDS011;6016;41.928;25.556;2023-07-08T10:32:28;10.38;;;7.22;;
11911;SDS011;6016;41.928;25.556;2023-07-08T10:35:08;9.85;;;7.40;;
11911;SDS011;6016;41.928;25.556;2023-07-08T10:37:43;12.82;;;7.70;;
11911;SDS011;6016;41.928;25.556;2023-07-08T10:40:24;15.77;;;7.93;;
11911;SDS011;6016;41.928;25.556;2023-07-08T10:43:03;9.75;;;7.07;;
11911;SDS011;6016;41.928;25.556;2023-07-08T10:45:51;11.32;;;8.10;;
11911;SDS011;6016;41.928;25.556;2023-07-08T10:48:38;8.63;;;6.80;;
11911;SDS011;6016;41.928;25.556;2023-07-08T10:51:22;10.45;;;7.50;;
11911;SDS011;6016;41.928;25.556;2023-07-08T10:54:01;10.15;;;6.90;;
11911;SDS011;6016;41.928;25.556;2023-07-08T10:56:53;13.35;;;7.75;;
11911;SDS011;6016;41.928;25.556;2023-07-08T10:59:28;8.50;;;6.50;;
11911;SDS011;6016;41.928;25.556;2023-07-08T11:02:19;9.88;;;6.57;;
11911;SDS011;6016;41.928;25.556;2023-07-08T11:05:03;10.77;;;7.65;;
11911;SDS011;6016;41.928;25.556;2023-07-08T11:07:45;9.50;;;7.28;;
11911;SDS011;6016;41.928;25.556;2023-07-08T11:10:17;13.25;;;8.02;;
11911;SDS011;6016;41.928;25.556;2023-07-08T11:12:50;10.70;;;7.35;;
11911;SDS011;6016;41.928;25.556;2023-07-08T11:15:21;10.55;;;7.55;;
11911;SDS011;6016;41.928;25.556;2023-07-08T11:17:56;10.20;;;7.35;;
11911;SDS011;6016;41.928;25.556;2023-07-08T11:20:34;10.30;;;7.03;;
11911;SDS011;6016;41.928;25.556;2023-07-08T11:23:10;10.75;;;7.97;;
11911;SDS011;6016;41.928;25.556;2023-07-08T11:25:45;9.85;;;7.53;;
11911;SDS011;6016;41.928;25.556;2023-07-08T11:28:15;11.63;;;7.15;;
11911;SDS011;6016;41.928;25.556;2023-07-08T11:30:46;11.00;;;7.97;;
11911;SDS011;6016;41.928;25.556;2023-07-08T11:33:17;9.93;;;6.35;;
11911;SDS011;6016;41.928;25.556;2023-07-08T11:35:50;11.25;;;6.60;;
11911;SDS011;6016;41.928;25.556;2023-07-08T11:38:24;11.63;;;6.72;;
11911;SDS011;6016;41.928;25.556;2023-07-08T11:40:52;8.73;;;6.55;;
11911;SDS011;6016;41.928;25.556;2023-07-08T11:43:23;14.60;;;8.48;;
11911;SDS011;6016;41.928;25.556;2023-07-08T11:45:53;15.65;;;11.10;;
11911;SDS011;6016;41.928;25.556;2023-07-08T11:48:22;23.45;;;13.45;;
11911;SDS011;6016;41.928;25.556;2023-07-08T11:50:53;11.30;;;8.13;;
11911;SDS011;6016;41.928;25.556;2023-07-08T11:53:38;10.50;;;6.40;;
11911;SDS011;6016;41.928;25.556;2023-07-08T11:56:21;7.55;;;5.88;;
11911;SDS011;6016;41.928;25.556;2023-07-08T11:58:50;7.78;;;5.68;;
11911;SDS011;6016;41.928;25.556;2023-07-08T12:01:25;8.85;;;5.95;;
11911;SDS011;6016;41.928;25.556;2023-07-08T12:03:55;8.13;;;6.13;;
11911;SDS011;6016;41.928;25.556;2023-07-08T12:06:43;12.25;;;6.15;;
11911;SDS011;6016;41.928;25.556;2023-07-08T12:09:15;7.90;;;6.30;;
11911;SDS011;6016;41.928;25.556;2023-07-08T12:11:51;10.07;;;6.50;;
11911;SDS011;6016;41.928;25.556;2023-07-08T12:14:21;11.88;;;5.80;;
11911;SDS011;6016;41.928;25.556;2023-07-08T12:16:49;7.43;;;5.97;;
11911;SDS011;6016;41.928;25.556;2023-07-08T12:19:17;9.77;;;6.43;;
11911;SDS011;6016;41.928;25.556;2023-07-08T12:21:46;18.52;;;15.15;;
11911;SDS011;6016;41.928;25.556;2023-07-08T12:24:15;31.50;;;23.23;;
11911;SDS011;6016;41.928;25.556;2023-07-08T12:26:42;12.23;;;9.27;;
11911;SDS011;6016;41.928;25.556;2023-07-08T12:29:11;20.23;;;14.27;;
11911;SDS011;6016;41.928;25.556;2023-07-08T12:31:39;19.48;;;11.88;;
11911;SDS011;6016;41.928;25.556;2023-07-08T12:34:10;20.80;;;13.10;;
11911;SDS011;6016;41.928;25.556;2023-07-08T12:36:40;14.23;;;9.37;;
11911;SDS011;6016;41.928;25.556;2023-07-08T12:39:09;35.47;;;30.27;;
11911;SDS011;6016;41.928;25.556;2023-07-08T12:41:42;25.30;;;22.70;;
11911;SDS011;6016;41.928;25.556;2023-07-08T12:44:14;61.47;;;53.65;;
11911;SDS011;6016;41.928;25.556;2023-07-08T12:46:44;32.65;;;26.52;;
11911;SDS011;6016;41.928;25.556;2023-07-08T12:49:11;17.35;;;13.77;;
11911;SDS011;6016;41.928;25.556;2023-07-08T12:51:41;15.98;;;11.27;;
11911;SDS011;6016;41.928;25.556;2023-07-08T12:54:09;18.45;;;14.02;;
11911;SDS011;6016;41.928;25.556;2023-07-08T12:56:36;17.27;;;11.10;;
11911;SDS011;6016;41.928;25.556;2023-07-08T12:59:06;15.18;;;12.40;;
11911;SDS011;6016;41.928;25.556;2023-07-08T13:01:34;14.75;;;11.63;;
11911;SDS011;6016;41.928;25.556;2023-07-08T13:04:04;16.73;;;11.88;;
11911;SDS011;6016;41.928;25.556;2023-07-08T13:06:35;12.48;;;10.43;;
11911;SDS011;6016;41.928;25.556;2023-07-08T13:09:06;15.85;;;9.90;;
11911;SDS011;6016;41.928;25.556;2023-07-08T13:11:36;21.02;;;9.20;;
11911;SDS011;6016;41.928;25.556;2023-07-08T13:14:04;11.65;;;8.82;;
11911;SDS011;6016;41.928;25.556;2023-07-08T13:16:33;13.18;;;8.65;;
11911;SDS011;6016;41.928;25.556;2023-07-08T13:19:02;9.93;;;8.35;;
11911;SDS011;6016;41.928;25.556;2023-07-08T13:21:29;12.55;;;8.70;;
11911;SDS011;6016;41.928;25.556;2023-07-08T13:23:58;13.40;;;7.85;;
11911;SDS011;6016;41.928;25.556;2023-07-08T13:26:26;13.63;;;7.85;;
11911;SDS011;6016;41.928;25.556;2023-07-08T13:28:59;10.00;;;7.45;;
11911;SDS011;6016;41.928;25.556;2023-07-08T13:31:33;14.63;;;10.93;;
11911;SDS011;6016;41.928;25.556;2023-07-08T13:34:05;9.77;;;7.55;;
11911;SDS011;6016;41.928;25.556;2023-07-08T13:36:33;9.38;;;7.82;;
11911;SDS011;6016;41.928;25.556;2023-07-08T13:39:05;10.73;;;6.95;;
11911;SDS011;6016;41.928;25.556;2023-07-08T13:41:35;9.70;;;7.53;;
11911;SDS011;6016;41.928;25.556;2023-07-08T13:44:04;7.65;;;6.40;;
11911;SDS011;6016;41.928;25.556;2023-07-08T13:46:35;7.72;;;6.22;;
11911;SDS011;6016;41.928;25.556;2023-07-08T13:51:37;5.53;;;4.50;;
11911;SDS011;6016;41.928;25.556;2023-07-08T13:54:09;5.68;;;4.07;;
11911;SDS011;6016;41.928;25.556;2023-07-08T13:56:41;5.90;;;4.60;;
11911;SDS011;6016;41.928;25.556;2023-07-08T13:59:09;4.85;;;4.20;;
11911;SDS011;6016;41.928;25.556;2023-07-08T14:01:39;5.60;;;4.65;;
11911;SDS011;6016;41.928;25.556;2023-07-08T14:04:09;6.18;;;4.43;;
11911;SDS011;6016;41.928;25.556;2023-07-08T14:06:37;6.57;;;4.18;;
11911;SDS011;6016;41.928;25.556;2023-07-08T14:09:07;7.38;;;4.20;;
11911;SDS011;6016;41.928;25.556;2023-07-08T14:11:38;4.88;;;4.20;;
11911;SDS011;6016;41.928;25.556;2023-07-08T14:14:05;6.20;;;4.32;;
11911;SDS011;6016;41.928;25.556;2023-07-08T14:16:33;5.20;;;4.55;;
11911;SDS011;6016;41.928;25.556;2023-07-08T14:19:04;10.10;;;5.05;;
11911;SDS011;6016;41.928;25.556;2023-07-08T14:21:33;5.07;;;4.15;;
11911;SDS011;6016;41.928;25.556;2023-07-08T14:24:01;4.55;;;3.63;;
11911;SDS011;6016;41.928;25.556;2023-07-08T14:26:34;4.95;;;3.70;;
11911;SDS011;6016;41.928;25.556;2023-07-08T14:29:04;6.97;;;4.22;;
11911;SDS011;6016;41.928;25.556;2023-07-08T14:31:41;5.38;;;4.55;;
11911;SDS011;6016;41.928;25.556;2023-07-08T14:34:11;4.78;;;3.72;;
11911;SDS011;6016;41.928;25.556;2023-07-08T14:36:39;6.05;;;4.60;;
11911;SDS011;6016;41.928;25.556;2023-07-08T14:39:09;5.13;;;4.57;;
11911;SDS011;6016;41.928;25.556;2023-07-08T14:41:38;8.68;;;4.80;;
11911;SDS011;6016;41.928;25.556;2023-07-08T14:44:10;5.93;;;4.10;;
11911;SDS011;6016;41.928;25.556;2023-07-08T14:46:46;5.53;;;4.30;;
11911;SDS011;6016;41.928;25.556;2023-07-08T14:49:16;5.95;;;4.10;;
11911;SDS011;6016;41.928;25.556;2023-07-08T14:51:44;5.70;;;3.72;;
11911;SDS011;6016;41.928;25.556;2023-07-08T14:54:11;5.13;;;3.63;;
11911;SDS011;6016;41.928;25.556;2023-07-08T14:56:39;5.13;;;3.95;;